Dubai Beauty — V7VO6 — position and weather

sailwx.info

Track history (hours):
 
Tides and Currents Weather Stations Pressure Air Temp Water Temp Dewpoint Dewpoint Depression Visibility Wind Speed Wind Dir Waves Ship Positions

Dubai Beauty

Last reported at 2017-Dec-11 01:58 UTC. Time now 2017-Dec-11 02:18 UTC.
Position N 54°44' W 000°53'.

Length 250 m; draft 8 m.

Type: Tanker. MMSI: 538004173.

Date/timePositionNaut miles runAvg speedWind from/ knotsBaromVisibWave heightAir tempDewpointWater temp
2017-Dec-11 01:58N 54°44' W 000°53'0 0.0
2017-Dec-11 01:28N 54°44' W 000°53'0 0.0
2017-Dec-11 00:52N 54°44' W 000°53'0 0.0
2017-Dec-11 00:22N 54°44' W 000°53'0 0.0
2017-Dec-10 23:52N 54°44' W 000°53'0 0.0
2017-Dec-10 23:19N 54°44' W 000°53'0 0.1
2017-Dec-10 22:52N 54°44' W 000°53'0 0.1
2017-Dec-10 22:22N 54°44' W 000°53'0 0.0
2017-Dec-10 21:52N 54°44' W 000°53'0 0.1
2017-Dec-10 21:22N 54°44' W 000°53'0 0.0
2017-Dec-10 20:55N 54°44' W 000°53'0 0.0
2017-Dec-10 20:25N 54°44' W 000°53'0 0.0
2017-Dec-10 19:55N 54°44' W 000°53'0 0.1
2017-Dec-10 19:10N 54°44' W 000°53'0 0.3
2017-Dec-10 18:55N 54°44' W 000°53'0 0.1
2017-Dec-10 18:28N 54°44' W 000°53'0 0.1
2017-Dec-10 17:55N 54°44' W 000°53'0 0.2
2017-Dec-10 17:25N 54°44' W 000°53'0 0.0
2017-Dec-10 16:58N 54°44' W 000°53'0 0.1
2017-Dec-10 16:28N 54°44' W 000°53'0 0.0
2017-Dec-10 15:58N 54°44' W 000°53'0 0.0
2017-Dec-10 15:28N 54°44' W 000°53'0 0.1
2017-Dec-10 14:58N 54°44' W 000°53'0 0.0
2017-Dec-10 14:16N 54°44' W 000°53'0 0.7
2017-Dec-10 14:00N 54°44' W 000°53'1 1.5
2017-Dec-10 13:30N 54°44' W 000°54'1 3.0
2017-Dec-10 13:00N 54°44' W 000°52'510.5
2017-Dec-10 12:30N 54°44' W 000°43'711.1
2017-Dec-10 11:51N 54°45' W 000°30'411.0
2017-Dec-10 11:30N 54°44' W 000°24'510.8
2017-Dec-10 11:00N 54°44' W 000°15'510.7
2017-Dec-10 10:30N 54°43' W 000°05'510.4
2017-Dec-10 10:00N 54°43' E 000°04'510.1
2017-Dec-10 09:30N 54°42' E 000°12'510.2
2017-Dec-10 09:00N 54°41' E 000°21'510.8
2017-Dec-10 08:30N 54°40' E 000°30'510.8
2017-Dec-10 08:00N 54°38' E 000°39'189 7.6
2017-Dec-09 07:02N 51°40' E 002°28'010.9
2017-Dec-09 07:00N 51°40' E 002°27'611.2
2017-Dec-09 06:26N 51°35' E 002°21'611.0
2017-Dec-09 05:54N 51°30' E 002°16'410.9
2017-Dec-09 05:30N 51°26' E 002°13'4 8.4
2017-Dec-09 05:00N 51°22' E 002°12'510.0
2017-Dec-09 04:30N 51°17' E 002°08'611.1
2017-Dec-09 04:00N 51°13' E 002°03'611.7
2017-Dec-09 03:30N 51°10' E 001°55'611.7
2017-Dec-09 03:00N 51°07' E 001°47'611.6
2017-Dec-09 02:30N 51°03' E 001°40'510.9
2017-Dec-09 02:00N 50°59' E 001°34'510.2
2017-Dec-09 01:30N 50°55' E 001°29'5 9.1
2017-Dec-09 00:59N 50°51' E 001°27'4 8.6
2017-Dec-09 00:30N 50°47' E 001°25'4 8.4
2017-Dec-08 23:59N 50°43' E 001°22'5 9.3
2017-Dec-08 23:24N 50°39' E 001°16'4 9.2
2017-Dec-08 23:00N 50°36' E 001°12'6 9.5
2017-Dec-08 22:21N 50°33' E 001°04'12 9.6
2017-Dec-08 21:05N 50°28' E 000°47'110.0
2017-Dec-08 20:58N 50°28' E 000°45'12 9.6
2017-Dec-08 19:42N 50°25' E 000°26'2 9.5
2017-Dec-08 19:28N 50°24' E 000°23'30 8.8
2017-Dec-08 16:07N 50°16' W 000°21'1 6.7
2017-Dec-08 15:59N 50°16' W 000°23'3 6.8
2017-Dec-08 15:30N 50°15' W 000°28'4 7.2
2017-Dec-08 14:59N 50°14' W 000°33'4 7.7
2017-Dec-08 14:30N 50°13' W 000°39'4 8.4
2017-Dec-08 14:00N 50°12' W 000°45'6910.6
2017-Dec-08 07:29N 49°54' W 002°29'510.5
2017-Dec-08 06:59N 49°52' W 002°37'510.2
2017-Dec-08 06:27N 49°51' W 002°45'10 9.8
2017-Dec-08 05:27N 49°48' W 003°00'5 9.7
2017-Dec-08 04:57N 49°48' W 003°08'4 9.7
2017-Dec-08 04:30N 49°47' W 003°14'5 9.7
2017-Dec-08 04:00N 49°46' W 003°21'5 9.9
2017-Dec-08 03:30N 49°45' W 003°29'5 9.9
2017-Dec-08 03:00N 49°45' W 003°37'510.0
2017-Dec-08 02:30N 49°45' W 003°44'2310.3
2017-Dec-08 00:15N 49°43' W 004°20'310.5
2017-Dec-08 00:00N 49°43' W 004°24'1611.0
2017-Dec-07 22:33N 49°41' W 004°49'60 9.1
2017-Dec-07 16:01N 50°19' W 005°60'210.7
2017-Dec-07 15:49N 50°21' W 005°60'510.3
2017-Dec-07 15:20N 50°26' W 005°56'510.6
2017-Dec-07 14:52N 50°30' W 005°53'410.7
2017-Dec-07 14:30N 50°34' W 005°50'510.9
2017-Dec-07 14:00N 50°39' W 005°47'611.4
2017-Dec-07 13:30N 50°44' W 005°44'611.4
2017-Dec-07 13:00N 50°49' W 005°40'611.3
2017-Dec-07 12:30N 50°54' W 005°37'611.0
2017-Dec-07 12:00N 50°60' W 005°34'510.8
2017-Dec-07 11:30N 51°05' W 005°31'510.8
2017-Dec-07 11:01N 51°10' W 005°29'510.7
2017-Dec-07 10:31N 51°15' W 005°26'510.4
2017-Dec-07 10:00N 51°20' W 005°23'510.5
2017-Dec-07 09:31N 51°25' W 005°21'510.1
2017-Dec-07 09:00N 51°30' W 005°18'511.1
2017-Dec-07 08:30N 51°35' W 005°16'5 9.8
2017-Dec-07 08:00N 51°39' W 005°11'5 9.1
2017-Dec-07 07:30N 51°42' W 005°05'2 3.5
2017-Dec-07 07:00N 51°42' W 005°03'0 0.0
2017-Dec-07 06:25N 51°42' W 005°03'0 0.0
2017-Dec-07 05:55N 51°42' W 005°03'0 0.0
2017-Dec-07 05:28N 51°42' W 005°03'0 0.0
2017-Dec-07 04:55N 51°42' W 005°03'0 0.0
2017-Dec-07 04:28N 51°42' W 005°03'0 0.0
2017-Dec-07 03:58N 51°42' W 005°03'0 0.0
2017-Dec-07 03:28N 51°42' W 005°03'0 0.0
2017-Dec-07 02:58N 51°42' W 005°03'0 0.0
2017-Dec-07 02:28N 51°42' W 005°03'0 0.0
2017-Dec-07 01:58N 51°42' W 005°03'0 0.0
2017-Dec-07 01:19N 51°42' W 005°03'0 0.0
2017-Dec-07 00:58N 51°42' W 005°03'0 0.0
2017-Dec-07 00:28N 51°42' W 005°03'0 0.0
2017-Dec-06 23:58N 51°42' W 005°03'0 0.0
2017-Dec-06 23:28N 51°42' W 005°03'0 0.0
2017-Dec-06 22:58N 51°42' W 005°03'0 0.0
2017-Dec-06 22:28N 51°42' W 005°03'0 0.0
2017-Dec-06 21:58N 51°42' W 005°03'0 0.0
2017-Dec-06 21:25N 51°42' W 005°03'0 0.0
2017-Dec-06 20:58N 51°42' W 005°03'  
2017-Dec-04 10:30N 51°27' W 005°22'1 1.1
2017-Dec-04 10:00N 51°27' W 005°21'1 1.4
2017-Dec-04 09:29N 51°27' W 005°20'1 1.5
2017-Dec-04 08:59N 51°27' W 005°19'1 1.5
2017-Dec-04 08:30N 51°27' W 005°17'1 1.4
2017-Dec-04 08:00N 51°27' W 005°16'1 1.3
2017-Dec-04 07:30N 51°27' W 005°15'1 1.1
2017-Dec-04 07:00N 51°26' W 005°14'0 0.8
2017-Dec-04 06:30N 51°26' W 005°14'0 0.5
2017-Dec-04 06:00N 51°26' W 005°13'0 0.0
2017-Dec-04 05:30N 51°26' W 005°13'0 0.5
2017-Dec-04 05:00N 51°26' W 005°14'0 0.8
2017-Dec-04 04:30N 51°26' W 005°14'1 1.2
2017-Dec-04 04:00N 51°27' W 005°15'1 1.6
2017-Dec-04 03:30N 51°27' W 005°16'1 1.8
2017-Dec-04 03:00N 51°28' W 005°17'1 1.7
2017-Dec-04 02:30N 51°28' W 005°19'1 1.5
2017-Dec-04 02:00N 51°29' W 005°19'3 6.4
2017-Dec-04 01:30N 51°26' W 005°22'611.6
2017-Dec-04 01:00N 51°22' W 005°28'1111.3
2017-Dec-04 00:02N 51°13' W 005°37'011.4
2017-Dec-04 00:00N 51°12' W 005°37'611.2
2017-Dec-03 23:29N 51°07' W 005°42'511.2
2017-Dec-03 23:00N 51°03' W 005°47'611.1
2017-Dec-03 22:30N 50°58' W 005°51'611.0
2017-Dec-03 22:00N 50°53' W 005°56'610.9
2017-Dec-03 21:27N 50°48' W 006°01'910.9
2017-Dec-03 20:39N 50°41' W 006°08'210.8
2017-Dec-03 20:27N 50°39' W 006°10'6311.8
2017-Dec-03 15:04N 49°40' W 006°48'4112.5
2017-Dec-03 11:50N 49°02' W 007°08'511.7
2017-Dec-03 11:23N 48°57' W 007°10'411.6
2017-Dec-03 11:00N 48°53' W 007°13'14111.3
2017-Dec-02 22:28N 46°39' W 008°20'43810.9
2017-Dec-01 06:09N 39°27' W 009°57'110.3
2017-Dec-01 06:00N 39°25' W 009°57'610.5
2017-Dec-01 05:27N 39°20' W 009°57'510.7
2017-Dec-01 05:00N 39°15' W 009°57'510.5
2017-Dec-01 04:30N 39°10' W 009°57'510.7
2017-Dec-01 04:00N 39°04' W 009°57'510.5
2017-Dec-01 03:30N 38°59' W 009°57'510.5
2017-Dec-01 03:00N 38°54' W 009°57'510.6
2017-Dec-01 02:30N 38°48' W 009°57'511.0
2017-Dec-01 02:00N 38°43' W 009°57'  
Track history (hours):
 
Tides and Currents Weather Stations Pressure Air Temp Water Temp Dewpoint Dewpoint Depression Visibility Wind Speed Wind Dir Waves Ship Positions

Dubai Beauty

Last reported at 2017-Dec-11 01:58 UTC. Time now 2017-Dec-11 02:18 UTC.
Position N 54°44' W 000°53'.

Length 250 m; draft 8 m.

Type: Tanker. MMSI: 538004173.

Date/timePositionNaut miles runAvg speedWind from/ knotsBaromVisibWave heightAir tempDewpointWater temp
2017-Dec-11 01:58N 54°44' W 000°53'0 0.0
2017-Dec-11 01:28N 54°44' W 000°53'0 0.0
2017-Dec-11 00:52N 54°44' W 000°53'0 0.0
2017-Dec-11 00:22N 54°44' W 000°53'0 0.0
2017-Dec-10 23:52N 54°44' W 000°53'0 0.0
2017-Dec-10 23:19N 54°44' W 000°53'0 0.1
2017-Dec-10 22:52N 54°44' W 000°53'0 0.1
2017-Dec-10 22:22N 54°44' W 000°53'0 0.0
2017-Dec-10 21:52N 54°44' W 000°53'0 0.1
2017-Dec-10 21:22N 54°44' W 000°53'0 0.0
2017-Dec-10 20:55N 54°44' W 000°53'0 0.0
2017-Dec-10 20:25N 54°44' W 000°53'0 0.0
2017-Dec-10 19:55N 54°44' W 000°53'0 0.1
2017-Dec-10 19:10N 54°44' W 000°53'0 0.3
2017-Dec-10 18:55N 54°44' W 000°53'0 0.1
2017-Dec-10 18:28N 54°44' W 000°53'0 0.1
2017-Dec-10 17:55N 54°44' W 000°53'0 0.2
2017-Dec-10 17:25N 54°44' W 000°53'0 0.0
2017-Dec-10 16:58N 54°44' W 000°53'0 0.1
2017-Dec-10 16:28N 54°44' W 000°53'0 0.0
2017-Dec-10 15:58N 54°44' W 000°53'0 0.0
2017-Dec-10 15:28N 54°44' W 000°53'0 0.1
2017-Dec-10 14:58N 54°44' W 000°53'0 0.0
2017-Dec-10 14:16N 54°44' W 000°53'0 0.7
2017-Dec-10 14:00N 54°44' W 000°53'1 1.5
2017-Dec-10 13:30N 54°44' W 000°54'1 3.0
2017-Dec-10 13:00N 54°44' W 000°52'510.5
2017-Dec-10 12:30N 54°44' W 000°43'711.1
2017-Dec-10 11:51N 54°45' W 000°30'411.0
2017-Dec-10 11:30N 54°44' W 000°24'510.8
2017-Dec-10 11:00N 54°44' W 000°15'510.7
2017-Dec-10 10:30N 54°43' W 000°05'510.4
2017-Dec-10 10:00N 54°43' E 000°04'510.1
2017-Dec-10 09:30N 54°42' E 000°12'510.2
2017-Dec-10 09:00N 54°41' E 000°21'510.8
2017-Dec-10 08:30N 54°40' E 000°30'510.8
2017-Dec-10 08:00N 54°38' E 000°39'189 7.6
2017-Dec-09 07:02N 51°40' E 002°28'010.9
2017-Dec-09 07:00N 51°40' E 002°27'611.2
2017-Dec-09 06:26N 51°35' E 002°21'611.0
2017-Dec-09 05:54N 51°30' E 002°16'410.9
2017-Dec-09 05:30N 51°26' E 002°13'4 8.4
2017-Dec-09 05:00N 51°22' E 002°12'510.0
2017-Dec-09 04:30N 51°17' E 002°08'611.1
2017-Dec-09 04:00N 51°13' E 002°03'611.7
2017-Dec-09 03:30N 51°10' E 001°55'611.7
2017-Dec-09 03:00N 51°07' E 001°47'611.6
2017-Dec-09 02:30N 51°03' E 001°40'510.9
2017-Dec-09 02:00N 50°59' E 001°34'510.2
2017-Dec-09 01:30N 50°55' E 001°29'5 9.1
2017-Dec-09 00:59N 50°51' E 001°27'4 8.6
2017-Dec-09 00:30N 50°47' E 001°25'4 8.4
2017-Dec-08 23:59N 50°43' E 001°22'5 9.3
2017-Dec-08 23:24N 50°39' E 001°16'4 9.2
2017-Dec-08 23:00N 50°36' E 001°12'6 9.5
2017-Dec-08 22:21N 50°33' E 001°04'12 9.6
2017-Dec-08 21:05N 50°28' E 000°47'110.0
2017-Dec-08 20:58N 50°28' E 000°45'12 9.6
2017-Dec-08 19:42N 50°25' E 000°26'2 9.5
2017-Dec-08 19:28N 50°24' E 000°23'30 8.8
2017-Dec-08 16:07N 50°16' W 000°21'1 6.7
2017-Dec-08 15:59N 50°16' W 000°23'3 6.8
2017-Dec-08 15:30N 50°15' W 000°28'4 7.2
2017-Dec-08 14:59N 50°14' W 000°33'4 7.7
2017-Dec-08 14:30N 50°13' W 000°39'4 8.4
2017-Dec-08 14:00N 50°12' W 000°45'6910.6
2017-Dec-08 07:29N 49°54' W 002°29'510.5
2017-Dec-08 06:59N 49°52' W 002°37'510.2
2017-Dec-08 06:27N 49°51' W 002°45'10 9.8
2017-Dec-08 05:27N 49°48' W 003°00'5 9.7
2017-Dec-08 04:57N 49°48' W 003°08'4 9.7
2017-Dec-08 04:30N 49°47' W 003°14'5 9.7
2017-Dec-08 04:00N 49°46' W 003°21'5 9.9
2017-Dec-08 03:30N 49°45' W 003°29'5 9.9
2017-Dec-08 03:00N 49°45' W 003°37'510.0
2017-Dec-08 02:30N 49°45' W 003°44'2310.3
2017-Dec-08 00:15N 49°43' W 004°20'310.5
2017-Dec-08 00:00N 49°43' W 004°24'1611.0
2017-Dec-07 22:33N 49°41' W 004°49'60 9.1
2017-Dec-07 16:01N 50°19' W 005°60'210.7
2017-Dec-07 15:49N 50°21' W 005°60'510.3
2017-Dec-07 15:20N 50°26' W 005°56'510.6
2017-Dec-07 14:52N 50°30' W 005°53'410.7
2017-Dec-07 14:30N 50°34' W 005°50'510.9
2017-Dec-07 14:00N 50°39' W 005°47'611.4
2017-Dec-07 13:30N 50°44' W 005°44'611.4
2017-Dec-07 13:00N 50°49' W 005°40'611.3
2017-Dec-07 12:30N 50°54' W 005°37'611.0
2017-Dec-07 12:00N 50°60' W 005°34'510.8
2017-Dec-07 11:30N 51°05' W 005°31'510.8
2017-Dec-07 11:01N 51°10' W 005°29'510.7
2017-Dec-07 10:31N 51°15' W 005°26'510.4
2017-Dec-07 10:00N 51°20' W 005°23'510.5
2017-Dec-07 09:31N 51°25' W 005°21'510.1
2017-Dec-07 09:00N 51°30' W 005°18'511.1
2017-Dec-07 08:30N 51°35' W 005°16'5 9.8
2017-Dec-07 08:00N 51°39' W 005°11'5 9.1
2017-Dec-07 07:30N 51°42' W 005°05'2 3.5
2017-Dec-07 07:00N 51°42' W 005°03'0 0.0
2017-Dec-07 06:25N 51°42' W 005°03'0 0.0
2017-Dec-07 05:55N 51°42' W 005°03'0 0.0
2017-Dec-07 05:28N 51°42' W 005°03'0 0.0
2017-Dec-07 04:55N 51°42' W 005°03'0 0.0
2017-Dec-07 04:28N 51°42' W 005°03'0 0.0
2017-Dec-07 03:58N 51°42' W 005°03'0 0.0
2017-Dec-07 03:28N 51°42' W 005°03'0 0.0
2017-Dec-07 02:58N 51°42' W 005°03'0 0.0
2017-Dec-07 02:28N 51°42' W 005°03'0 0.0
2017-Dec-07 01:58N 51°42' W 005°03'0 0.0
2017-Dec-07 01:19N 51°42' W 005°03'0 0.0
2017-Dec-07 00:58N 51°42' W 005°03'0 0.0
2017-Dec-07 00:28N 51°42' W 005°03'0 0.0
2017-Dec-06 23:58N 51°42' W 005°03'0 0.0
2017-Dec-06 23:28N 51°42' W 005°03'0 0.0
2017-Dec-06 22:58N 51°42' W 005°03'0 0.0
2017-Dec-06 22:28N 51°42' W 005°03'0 0.0
2017-Dec-06 21:58N 51°42' W 005°03'0 0.0
2017-Dec-06 21:25N 51°42' W 005°03'0 0.0
2017-Dec-06 20:58N 51°42' W 005°03'  
2017-Dec-04 10:30N 51°27' W 005°22'1 1.1
2017-Dec-04 10:00N 51°27' W 005°21'1 1.4
2017-Dec-04 09:29N 51°27' W 005°20'1 1.5
2017-Dec-04 08:59N 51°27' W 005°19'1 1.5
2017-Dec-04 08:30N 51°27' W 005°17'1 1.4
2017-Dec-04 08:00N 51°27' W 005°16'1 1.3
2017-Dec-04 07:30N 51°27' W 005°15'1 1.1
2017-Dec-04 07:00N 51°26' W 005°14'0 0.8
2017-Dec-04 06:30N 51°26' W 005°14'0 0.5
2017-Dec-04 06:00N 51°26' W 005°13'0 0.0
2017-Dec-04 05:30N 51°26' W 005°13'0 0.5
2017-Dec-04 05:00N 51°26' W 005°14'0 0.8
2017-Dec-04 04:30N 51°26' W 005°14'1 1.2
2017-Dec-04 04:00N 51°27' W 005°15'1 1.6
2017-Dec-04 03:30N 51°27' W 005°16'1 1.8
2017-Dec-04 03:00N 51°28' W 005°17'1 1.7
2017-Dec-04 02:30N 51°28' W 005°19'1 1.5
2017-Dec-04 02:00N 51°29' W 005°19'3 6.4
2017-Dec-04 01:30N 51°26' W 005°22'611.6
2017-Dec-04 01:00N 51°22' W 005°28'1111.3
2017-Dec-04 00:02N 51°13' W 005°37'011.4
2017-Dec-04 00:00N 51°12' W 005°37'611.2
2017-Dec-03 23:29N 51°07' W 005°42'511.2
2017-Dec-03 23:00N 51°03' W 005°47'611.1
2017-Dec-03 22:30N 50°58' W 005°51'611.0
2017-Dec-03 22:00N 50°53' W 005°56'610.9
2017-Dec-03 21:27N 50°48' W 006°01'910.9
2017-Dec-03 20:39N 50°41' W 006°08'210.8
2017-Dec-03 20:27N 50°39' W 006°10'6311.8
2017-Dec-03 15:04N 49°40' W 006°48'4112.5
2017-Dec-03 11:50N 49°02' W 007°08'511.7
2017-Dec-03 11:23N 48°57' W 007°10'411.6
2017-Dec-03 11:00N 48°53' W 007°13'14111.3
2017-Dec-02 22:28N 46°39' W 008°20'43810.9
2017-Dec-01 06:09N 39°27' W 009°57'110.3
2017-Dec-01 06:00N 39°25' W 009°57'610.5
2017-Dec-01 05:27N 39°20' W 009°57'510.7
2017-Dec-01 05:00N 39°15' W 009°57'510.5
2017-Dec-01 04:30N 39°10' W 009°57'510.7
2017-Dec-01 04:00N 39°04' W 009°57'510.5
2017-Dec-01 03:30N 38°59' W 009°57'510.5
2017-Dec-01 03:00N 38°54' W 009°57'510.6
2017-Dec-01 02:30N 38°48' W 009°57'511.0
2017-Dec-01 02:00N 38°43' W 009°57'  

Dump ship's entire track history